Flight Track Log - Related Links

Times and Time Zones

All times are in EDT time to prevent confusion due to time zone crossing. See the EJA365 flight status page for this flight to view local times or setup timezone preferences in your user account.

Time Position Orientation Groundspeed Altitude Reporting Facility
EDT Latitude Longitude Course Direction KTS MPH feet Rate Location/Type
Sun 11:43:08 AM 33.5767 -86.7517 341° North 160 184 1,500  Level Atlanta Center
Sun 11:44:17 AM 33.6283 -86.7731 341° North 177 204 4,600 2,952 Climbing Atlanta Center
Sun 11:46:17 AM 33.6136 -86.9597 265° West 231 266 10,800 3,000 Climbing Atlanta Center
Sun 11:47:17 AM 33.6069 -87.0642 266° West 266 306 13,600 9,807 Climbing Atlanta Center
Sun 11:49:34 AM 33.5864 -87.3075 264° West 347 399 43,000 2,985 Climbing Memphis Center
Sun 11:50:34 AM 33.5767 -87.4225 264° West 352 405 23,400 -4,967 Descending Memphis Center
Sun 11:52:34 AM 33.6108 -87.6408 281° West 340 391 28,100 2,000 Climbing Memphis Center
Sun 11:53:34 AM 33.6403 -87.7597 287° West 357 411 29,400 1,400 Climbing Memphis Center
Sun 11:54:34 AM 33.6722 -87.8811 288° West 370 426 30,900 1,500 Climbing Memphis Center
Sun 11:55:34 AM 33.7036 -88.0025 287° West 375 432 32,400 1,500 Climbing Memphis Center
Sun 11:56:34 AM 33.7331 -88.1192 287° West 375 432 33,900 3,800 Climbing Memphis Center
Sun 11:57:34 AM 33.7622 -88.2383 286° West 375 432 40,000 1,450 Climbing Memphis Center
Sun 11:58:34 AM 33.7914 -88.3550 287° West 375 432 36,800 -1,100 Descending Memphis Center
Sun 11:59:34 AM 33.8203 -88.4694 287° West 370 426 37,800 1,000 Climbing Memphis Center
Sun 12:00:34 PM 33.8469 -88.5814 286° West 364 419 38,800 1,000 Climbing Memphis Center
Sun 12:01:34 PM 33.8736 -88.6933 286° West 358 412 39,800 600 Climbing Memphis Center
Sun 12:02:34 PM 33.9019 -88.8006 288° West 346 398 40,000 100 Climbing Memphis Center
Sun 12:03:34 PM 33.9328 -88.9278 286° West 351 404 40,000  Level Memphis Center
Sun 12:04:34 PM 33.9611 -89.0475 286° West 370 426 40,000  Level Memphis Center
Sun 12:05:34 PM 33.9917 -89.1697 287° West 376 433 40,000  Level Memphis Center
Sun 12:06:34 PM 34.0178 -89.2822 286° West 390 449 40,000  Level Memphis Center
Sun 12:07:34 PM 34.0500 -89.4119 287° West 399 459 40,000  Level Memphis Center
Sun 12:08:34 PM 34.0803 -89.5397 286° West 394 453 40,000  Level Memphis Center
Sun 12:09:34 PM 34.1103 -89.6672 286° West 394 453 40,000  Level Memphis Center
Sun 12:10:34 PM 34.1381 -89.7950 285° West 394 453 40,000  Level Memphis Center
Sun 12:11:34 PM 34.1719 -89.9328 287° West 394 453 40,000  Level Memphis Center
Sun 12:12:34 PM 34.1994 -90.0583 285° West 394 453 40,000  Level Memphis Center
Sun 12:13:34 PM 34.2289 -90.1789 286° West 394 453 40,000  Level Memphis Center
Sun 12:14:34 PM 34.2583 -90.3044 286° West 389 448 40,000  Level Memphis Center
Sun 12:15:34 PM 34.2875 -90.4275 286° West 384 442 40,000  Level Memphis Center
Sun 12:16:34 PM 34.3167 -90.5508 286° West 384 442 40,000  Level Memphis Center
Sun 12:17:34 PM 34.3414 -90.6717 284° West 374 430 40,000  Level Memphis Center
Sun 12:18:34 PM 34.3681 -90.7800 287° West 379 436 40,000  Level Memphis Center
Sun 12:19:34 PM 34.3947 -90.9033 285° West 379 436 40,000  Level Memphis Center
Sun 12:20:34 PM 34.4233 -91.0244 286° West 374 430 40,000  Level Memphis Center
Sun 12:21:34 PM 34.4519 -91.1456 286° West 379 436 40,000  Level Memphis Center
Sun 12:22:34 PM 34.4803 -91.2667 286° West 379 436 40,000  Level Memphis Center
Sun 12:23:46 PM 34.5044 -91.3881 284° West 373 429 40,000  Level Memphis Center
Sun 12:24:46 PM 34.5386 -91.5372 286° West 373 429 40,000  Level Memphis Center
Sun 12:25:46 PM 34.5625 -91.6558 284° West 378 435 40,000  Level Memphis Center
Sun 12:26:46 PM 34.5925 -91.7750 287° West 378 435 40,000  Level Memphis Center
Sun 12:27:46 PM 34.6203 -91.8967 286° West 378 435 40,000  Level Memphis Center
Sun 12:28:46 PM 34.6436 -92.0206 283° West 378 435 40,000  Level Memphis Center
Sun 12:29:46 PM 34.6692 -92.1425 284° West 378 435 40,000  Level Memphis Center
Sun 12:30:46 PM 34.6903 -92.2692 281° West 378 435 40,000  Level Memphis Center
Sun 12:31:46 PM 34.7092 -92.3958 280° West 378 435 40,000  Level Memphis Center
Sun 12:32:46 PM 34.7258 -92.5225 279° West 378 435 40,000  Level Memphis Center
Sun 12:33:46 PM 34.7444 -92.6494 280° West 378 435 40,000  Level Memphis Center
Sun 12:34:46 PM 34.7608 -92.7764 279° West 378 435 40,000  Level Memphis Center
Sun 12:35:46 PM 34.7811 -92.9033 281° West 383 441 40,000  Level Memphis Center
Sun 12:36:46 PM 34.7992 -93.0353 279° West 389 448 40,000  Level Memphis Center
Sun 12:37:46 PM 34.8153 -93.1622 279° West 389 448 40,000  Level Memphis Center
Sun 12:38:46 PM 34.8331 -93.2944 279° West 389 448 40,000  Level Memphis Center
Sun 12:39:46 PM 34.8508 -93.4217 280° West 389 448 40,000  Level Memphis Center
Sun 12:40:46 PM 34.8686 -93.5514 280° West 389 448 40,000  Level Memphis Center
Sun 12:41:46 PM 34.8858 -93.6836 279° West 389 448 40,000  Level Memphis Center
Sun 12:42:46 PM 34.9053 -93.8136 280° West 389 448 40,000  Level Memphis Center
Sun 12:43:46 PM 34.9225 -93.9433 279° West 389 448 40,000  Level Memphis Center
Sun 12:44:46 PM 34.9375 -94.0731 278° West 389 448 40,000  Level Memphis Center
Sun 12:45:46 PM 34.9525 -94.2006 278° West 389 448 40,000  Level Memphis Center
Sun 12:46:46 PM 34.9672 -94.3253 278° West 389 448 40,000  Level Memphis Center
Sun 12:47:46 PM 34.9839 -94.4528 279° West 389 448 40,000  Level Memphis Center
Sun 12:48:18 PM 34.9981 -94.5419 281° West 407 468 40,000  Level Fort Worth Center
Sun 12:49:18 PM 35.0133 -94.6706 278° West 407 468 40,000  Level Fort Worth Center
Sun 12:50:18 PM 35.0328 -94.7994 280° West 402 463 40,000  Level Fort Worth Center
Sun 12:51:19 PM 35.0500 -94.9306 279° West 396 456 40,000  Level Fort Worth Center
Sun 12:52:18 PM 35.0672 -95.0594 279° West 391 450 40,000  Level Fort Worth Center
Sun 12:53:18 PM 35.0842 -95.1911 279° West 391 450 40,000  Level Fort Worth Center
Sun 12:54:18 PM 35.1008 -95.3175 279° West 386 444 40,000 -500 Level Fort Worth Center
Sun 12:55:18 PM 35.1178 -95.4489 279° West 386 444 39,000 -1,000 Descending Fort Worth Center
Sun 12:56:18 PM 35.1342 -95.5806 279° West 391 450 38,000 -496 Descending Fort Worth Center
Sun 12:57:19 PM 35.1486 -95.7097 278° West 391 450 38,000  Level Fort Worth Center
Sun 12:58:18 PM 35.1650 -95.8417 279° West 391 450 38,000  Level Fort Worth Center
Sun 12:59:18 PM 35.1747 -95.9583 276° West 391 450 38,000  Level Fort Worth Center
Sun 01:00:18 PM 35.1908 -96.0900 279° West 391 450 38,000  Level Fort Worth Center
Sun 01:01:18 PM 35.2044 -96.2169 278° West 391 450 38,000  Level Fort Worth Center
Sun 01:02:18 PM 35.2203 -96.3489 278° West 391 450 38,000  Level Fort Worth Center
Sun 01:03:19 PM 35.2339 -96.4783 277° West 391 450 38,000  Level Fort Worth Center
Sun 01:04:18 PM 35.2494 -96.6078 278° West 391 450 38,000  Level Fort Worth Center
Sun 01:05:18 PM 35.2625 -96.7372 277° West 391 450 38,000  Level Fort Worth Center
Sun 01:06:19 PM 35.2778 -96.8642 278° West 386 444 38,000 150 Level Fort Worth Center
Sun 01:07:18 PM 35.2908 -96.9914 277° West 386 444 38,300 403 Climbing Fort Worth Center
Sun 01:08:18 PM 35.3036 -97.1211 277° West 386 444 38,800 500 Climbing Fort Worth Center
Sun 01:09:18 PM 35.3228 -97.2633 279° West 397 457 39,300 550 Climbing Fort Worth Center
Sun 01:10:18 PM 35.3417 -97.3933 280° West 392 451 39,900 350 Climbing Fort Worth Center
Sun 01:11:18 PM 35.3500 -97.5256 274° West 387 445 40,000 50 Climbing Fort Worth Center
Sun 01:12:18 PM 35.3622 -97.6581 276° West 392 451 40,000  Level Fort Worth Center
Sun 01:13:18 PM 35.3806 -97.7828 280° West 387 445 40,000  Level Fort Worth Center
Sun 01:14:18 PM 35.3969 -97.9075 279° West 387 445 40,000  Level Fort Worth Center
Sun 01:15:18 PM 35.4131 -98.0325 279° West 382 440 40,000  Level Fort Worth Center
Sun 01:16:18 PM 35.4311 -98.1600 280° West 382 440 40,000  Level Fort Worth Center
Sun 01:17:18 PM 35.4469 -98.2850 279° West 377 434 40,000  Level Fort Worth Center
Sun 01:18:19 PM 35.4628 -98.4100 279° West 377 434 40,000  Level Fort Worth Center
Sun 01:19:18 PM 35.4783 -98.5325 279° West 372 428 40,000  Level Fort Worth Center
Sun 01:20:18 PM 35.4939 -98.6553 279° West 372 428 40,000  Level Fort Worth Center
Sun 01:21:19 PM 35.5072 -98.7650 279° West 372 428 40,000  Level Fort Worth Center
Sun 01:22:18 PM 35.5225 -98.8878 279° West 372 428 40,000  Level Fort Worth Center
Sun 01:23:18 PM 35.5397 -99.0106 280° West 372 428 40,000  Level Fort Worth Center
Sun 01:24:19 PM 35.5528 -99.1331 277° West 372 428 40,000  Level Fort Worth Center
Sun 01:25:18 PM 35.5678 -99.2533 279° West 372 428 40,000  Level Fort Worth Center
Sun 01:26:18 PM 35.5847 -99.3764 280° West 372 428 40,000  Level Fort Worth Center
Sun 01:27:18 PM 35.5994 -99.4967 279° West 366 421 40,000  Level Fort Worth Center
Sun 01:28:49 PM 35.6219 -99.6897 278° West 356 410 40,000  Level Albuquerque Center
Sun 01:29:51 PM 35.6367 -99.8128 278° West 360 414 40,000  Level Albuquerque Center
Sun 01:30:53 PM 35.6508 -99.9347 278° West 359 413 40,000  Level Albuquerque Center
Sun 01:31:55 PM 35.6647 -100.0567 278° West 360 414 40,000  Level Albuquerque Center
Sun 01:32:57 PM 35.6789 -100.1800 278° West 362 417 40,000  Level Albuquerque Center
Sun 01:33:59 PM 35.6939 -100.3028 279° West 361 415 40,000  Level Albuquerque Center
Sun 01:35:01 PM 35.7061 -100.4264 277° West 363 418 40,000  Level Albuquerque Center
Sun 01:36:03 PM 35.7197 -100.5514 278° West 366 421 40,000  Level Albuquerque Center
Sun 01:37:05 PM 35.7358 -100.7014 278° West 367 422 40,000  Level Albuquerque Center
Sun 01:38:07 PM 35.7503 -100.8267 278° West 368 423 40,000  Level Albuquerque Center
Sun 01:39:09 PM 35.7639 -100.9592 277° West 364 419 40,000  Level Albuquerque Center
Sun 01:40:11 PM 35.7769 -101.0817 278° West 363 418 40,000  Level Albuquerque Center
Sun 01:41:13 PM 35.7886 -101.2053 277° West 365 420 40,000  Level Albuquerque Center
Sun 01:42:15 PM 35.8119 -101.3272 283° West 368 423 40,000  Level Albuquerque Center
Sun 01:43:17 PM 35.8422 -101.4461 287° West 367 422 40,000  Level Albuquerque Center
Sun 01:44:19 PM 35.8775 -101.5886 287° West 365 420 40,000  Level Albuquerque Center
Sun 01:45:21 PM 35.9072 -101.7094 287° West 368 423 40,000  Level Albuquerque Center
Sun 01:46:23 PM 35.9358 -101.8317 286° West 370 426 40,000  Level Albuquerque Center
Sun 01:47:26 PM 35.9653 -101.9519 287° West 371 427 40,000  Level Albuquerque Center
Sun 01:48:28 PM 35.9947 -102.0719 287° West 369 425 40,000  Level Albuquerque Center
Sun 01:49:30 PM 36.0303 -102.2172 287° West 371 427 40,000  Level Albuquerque Center
Sun 01:50:32 PM 36.0586 -102.3386 286° West 370 426 40,000  Level Albuquerque Center
Sun 01:51:34 PM 36.0869 -102.4589 286° West 368 423 40,000  Level Albuquerque Center
Sun 01:52:36 PM 36.1161 -102.5797 287° West 368 423 40,000  Level Albuquerque Center
Sun 01:53:38 PM 36.1436 -102.6997 286° West 366 421 40,000  Level Albuquerque Center
Sun 01:54:40 PM 36.1722 -102.8200 286° West 365 420 40,000  Level Albuquerque Center
Sun 01:55:42 PM 36.2017 -102.9472 286° West 365 420 40,000  Level Albuquerque Center
Sun 01:56:44 PM 36.2347 -103.0892 286° West 364 419 40,000  Level Albuquerque Center
Sun 01:57:46 PM 36.2628 -103.2122 286° West 367 422 40,000  Level Albuquerque Center
Sun 01:58:48 PM 36.2928 -103.3367 287° West 372 428 40,000  Level Albuquerque Center
Sun 01:59:50 PM 36.3197 -103.4592 285° West 368 423 40,000  Level Albuquerque Center
Sun 02:00:52 PM 36.3486 -103.5817 286° West 368 423 40,000  Level Albuquerque Center
Sun 02:01:54 PM 36.3758 -103.7047 285° West 369 425 40,000  Level Albuquerque Center
Sun 02:02:56 PM 36.4033 -103.8272 286° West 366 421 40,000  Level Albuquerque Center
Sun 02:03:58 PM 36.4356 -103.9703 286° West 367 422 40,000  Level Albuquerque Center
Sun 02:05:00 PM 36.4625 -104.0936 285° West 367 422 40,000  Level Albuquerque Center
Sun 02:06:02 PM 36.4894 -104.2144 286° West 364 419 40,000  Level Albuquerque Center
Sun 02:07:04 PM 36.5169 -104.3381 286° West 366 421 40,000  Level Albuquerque Center
Sun 02:08:05 PM 36.5433 -104.4619 285° West 369 425 40,000  Level Albuquerque Center
Sun 02:09:07 PM 36.5706 -104.5872 285° West 371 427 40,000  Level Albuquerque Center
Sun 02:10:09 PM 36.5981 -104.7092 286° West 368 423 40,000  Level Albuquerque Center
Sun 02:11:11 PM 36.6294 -104.8547 285° West 370 426 40,000  Level Albuquerque Center
Sun 02:12:13 PM 36.6558 -104.9794 285° West 370 426 40,000  Level Albuquerque Center
Sun 02:13:15 PM 36.6822 -105.1033 285° West 369 425 40,000  Level Albuquerque Center
Sun 02:14:17 PM 36.7106 -105.2353 285° West 367 422 40,000  Level Albuquerque Center
Sun 02:15:19 PM 36.7347 -105.3528 284° West 365 420 40,000  Level Albuquerque Center
Sun 02:15:48 PM 36.7458 -105.4128 283° West 364 419 40,000  Level Denver Center
Sun 02:16:50 PM 36.7714 -105.5314 285° West 366 421 40,000  Level Denver Center
Sun 02:17:52 PM 36.8000 -105.6708 284° West 372 428 40,000  Level Denver Center
Sun 02:18:54 PM 36.8242 -105.7931 284° West 378 435 40,000  Level Denver Center
Sun 02:19:55 PM 36.8553 -105.9339 285° West 377 434 40,000  Level Denver Center
Sun 02:20:57 PM 36.8744 -106.0344 283° West 375 432 40,000  Level Denver Center
Sun 02:21:59 PM 36.9078 -106.1958 285° West 379 436 40,000  Level Denver Center
Sun 02:23:01 PM 36.9311 -106.3169 284° West 379 436 40,000  Level Denver Center
Sun 02:24:03 PM 36.9586 -106.4594 284° West 377 434 40,000  Level Denver Center
Sun 02:25:04 PM 36.9839 -106.5828 284° West 379 436 40,000  Level Denver Center
Sun 02:26:06 PM 37.0139 -106.7281 285° West 386 444 40,000  Level Denver Center
Sun 02:27:08 PM 37.0367 -106.8503 283° West 380 437 40,000  Level Denver Center
Sun 02:28:10 PM 37.0617 -106.9739 284° West 384 442 40,000  Level Denver Center
Sun 02:29:12 PM 37.0886 -107.1183 283° West 383 441 40,000  Level Denver Center
Sun 02:30:13 PM 37.1122 -107.2403 284° West 380 437 40,000  Level Denver Center
Sun 02:31:15 PM 37.1406 -107.3839 284° West 379 436 40,000  Level Denver Center
Sun 02:32:17 PM 37.1606 -107.4867 284° West 383 441 40,000  Level Denver Center
Sun 02:33:19 PM 37.1914 -107.6517 283° West 384 442 40,000  Level Denver Center
Sun 02:34:21 PM 37.2142 -107.7753 283° West 381 438 40,000  Level Denver Center
Sun 02:35:23 PM 37.2417 -107.9206 283° West 382 440 40,000  Level Denver Center
Sun 02:36:24 PM 37.2656 -108.0469 283° West 387 445 40,000  Level Denver Center
Sun 02:37:26 PM 37.2914 -108.1917 283° West 384 442 40,000  Level Denver Center
Sun 02:38:28 PM 37.3139 -108.3164 283° West 383 441 40,000  Level Denver Center
Sun 02:39:30 PM 37.3364 -108.4389 283° West 381 438 40,000  Level Denver Center
Sun 02:40:32 PM 37.3622 -108.5831 283° West 379 436 40,000  Level Denver Center
Sun 02:41:34 PM 37.3842 -108.7036 283° West 374 430 40,000  Level Denver Center
Sun 02:42:35 PM 37.4086 -108.8442 282° West 369 425 40,000  Level Denver Center
Sun 02:43:37 PM 37.4300 -108.9650 283° West 370 426 40,000  Level Denver Center
Sun 02:44:39 PM 37.4553 -109.1069 283° West 373 429 40,000  Level Denver Center
Sun 02:45:41 PM 37.4761 -109.2286 282° West 372 428 40,000  Level Denver Center
Sun 02:46:42 PM 37.5014 -109.3700 283° West 372 428 40,000  Level Denver Center
Sun 02:47:44 PM 37.5217 -109.4925 282° West 373 429 40,000  Level Denver Center
Sun 02:48:46 PM 37.5464 -109.6375 282° West 379 436 40,000  Level Denver Center
Sun 02:49:48 PM 37.5672 -109.7636 282° West 383 441 40,000  Level Denver Center
Sun 02:50:49 PM 37.5883 -109.8872 282° West 380 437 40,000  Level Denver Center
Sun 02:51:51 PM 37.6133 -110.0311 282° West 376 433 40,000  Level Denver Center
Sun 02:52:53 PM 37.6331 -110.1564 281° West 381 438 40,000  Level Denver Center
Sun 02:53:54 PM 37.6569 -110.3006 282° West 378 435 40,000  Level Denver Center
Sun 02:54:56 PM 37.6775 -110.4250 282° West 378 435 40,000  Level Denver Center
Sun 02:55:58 PM 37.6969 -110.5467 281° West 380 437 40,000  Level Denver Center
Sun 02:57:00 PM 37.7211 -110.7022 281° West 376 433 40,000  Level Denver Center
Sun 02:58:01 PM 37.7419 -110.8314 282° West 377 434 40,000  Level Denver Center
Sun 02:59:03 PM 37.7622 -110.9619 281° West 378 435 40,000  Level Denver Center
Sun 03:00:54 PM 37.7781 -111.2053 275° West 390 449 40,000  Level Salt Lake Center
Sun 03:01:56 PM 37.7772 -111.3414 270° West 389 448 40,000  Level Salt Lake Center
Sun 03:02:58 PM 37.7711 -111.4789 267° West 394 453 40,000  Level Salt Lake Center
Sun 03:04:00 PM 37.7550 -111.6431 263° West 394 453 40,000  Level Salt Lake Center
Sun 03:05:01 PM 37.7436 -111.7792 264° West 391 450 40,000  Level Salt Lake Center
Sun 03:06:03 PM 37.7322 -111.9142 264° West 389 448 40,000  Level Salt Lake Center
Sun 03:07:05 PM 37.7192 -112.0506 263° West 391 450 40,000  Level Salt Lake Center
Sun 03:08:06 PM 37.7075 -112.1850 264° West 386 444 40,000  Level Salt Lake Center
Sun 03:09:08 PM 37.7036 -112.3178 268° West 381 438 40,000  Level Salt Lake Center
Sun 03:10:10 PM 37.7169 -112.4764 276° West 380 437 40,000  Level Salt Lake Center
Sun 03:11:12 PM 37.7272 -112.6086 276° West 381 438 40,000  Level Salt Lake Center
Sun 03:12:14 PM 37.7369 -112.7403 275° West 382 440 40,000  Level Salt Lake Center
Sun 03:13:15 PM 37.7469 -112.8733 275° West 387 445 40,000  Level Salt Lake Center
Sun 03:14:05 PM 37.7542 -112.9794 275° West 388 447 40,000  Level Salt Lake Center
Sun 03:15:06 PM 37.7650 -113.1381 275° West 382 440 40,000  Level Salt Lake Center
Sun 03:16:08 PM 37.7733 -113.2711 275° West 383 441 40,000  Level Salt Lake Center
Sun 03:17:10 PM 37.7819 -113.4053 275° West 385 443 40,000  Level Salt Lake Center
Sun 03:18:12 PM 37.7911 -113.5408 275° West 388 447 40,000  Level Salt Lake Center
Sun 03:19:13 PM 37.7992 -113.6756 274° West 387 445 40,000  Level Salt Lake Center
Sun 03:20:15 PM 37.8078 -113.8103 275° West 386 444 40,000  Level Salt Lake Center
Sun 03:21:17 PM 37.8172 -113.9456 275° West 386 444 40,000  Level Salt Lake Center
Sun 03:22:19 PM 37.8261 -114.1061 274° West 384 442 40,000  Level Salt Lake Center
Sun 03:23:20 PM 37.8344 -114.2411 275° West 385 443 40,000  Level Salt Lake Center
Sun 03:24:22 PM 37.8431 -114.3758 275° West 386 444 40,000  Level Salt Lake Center
Sun 03:26:26 PM 37.8586 -114.6458 274° West 385 443 40,000  Level Salt Lake Center
Sun 03:26:41 PM 37.8628 -114.6983 276° West 383 441 40,000  Level Los Angeles Center
Sun 03:27:44 PM 37.8706 -114.8344 274° West 387 445 40,000  Level Los Angeles Center
Sun 03:28:29 PM 37.8758 -114.9425 274° West 386 444 40,000  Level Salt Lake Center
Sun 03:29:31 PM 37.8869 -115.0731 276° West 388 447 40,000  Level Salt Lake Center
Sun 03:30:32 PM 37.8944 -115.2089 274° West 388 447 40,000  Level Salt Lake Center
Sun 03:31:34 PM 37.9008 -115.3439 273° West 385 443 40,000  Level Salt Lake Center
Sun 03:32:36 PM 37.9075 -115.4800 274° West 385 443 40,000  Level Salt Lake Center
Sun 03:33:37 PM 37.9147 -115.6158 274° West 387 445 40,000  Level Salt Lake Center
Sun 03:34:39 PM 37.9214 -115.7517 274° West 388 447 40,000  Level Salt Lake Center
Sun 03:35:41 PM 37.9292 -115.9139 274° West 387 445 40,000  Level Salt Lake Center
Sun 03:36:42 PM 37.9356 -116.0517 273° West 389 448 40,000  Level Salt Lake Center
Sun 03:37:42 PM 37.9419 -116.1881 273° West 389 448 40,000  Level Oakland Center
Sun 03:38:43 PM 37.9483 -116.3244 273° West 388 447 40,000  Level Oakland Center
Sun 03:39:48 PM 37.9533 -116.4614 273° West 388 447 40,000  Level Salt Lake Center
Sun 03:40:49 PM 37.9597 -116.5992 273° West 390 449 40,000  Level Salt Lake Center
Sun 03:41:51 PM 37.9656 -116.7372 273° West 392 451 40,000  Level Salt Lake Center
Sun 03:42:52 PM 37.9711 -116.8744 273° West 389 448 40,000  Level Salt Lake Center
Sun 03:43:54 PM 37.9769 -117.0117 273° West 387 445 40,000  Level Salt Lake Center
Sun 03:44:53 PM 37.9819 -117.1500 273° West 388 447 40,000  Level Oakland Center
Sun 03:45:54 PM 37.9872 -117.2894 273° West 389 448 40,000  Level Oakland Center
Sun 03:46:56 PM 37.9522 -117.4228 252° West 398 458 40,000  Level Oakland Center
Sun 03:47:58 PM 37.9067 -117.5528 246° West 400 460 40,000  Level Oakland Center
Sun 03:48:59 PM 37.8525 -117.7072 246° West 399 459 40,000  Level Oakland Center
Sun 03:50:01 PM 37.8069 -117.8358 246° West 400 460 40,000 -634 Level Oakland Center
Sun 03:51:02 PM 37.7611 -117.9650 246° West 403 464 38,700 -1,317 Descending Oakland Center
Sun 03:52:04 PM 37.7144 -118.0964 246° West 408 470 37,300 -1,220 Descending Oakland Center
Sun 03:53:05 PM 37.6692 -118.2272 246° West 406 467 36,200 -634 Descending Oakland Center
Sun 03:54:07 PM 37.6197 -118.3617 245° Southwest 418 481 36,000 -65 Descending Oakland Center
Sun 03:56:10 PM 37.5228 -118.6300 246° West 418 481 36,000  Level Oakland Center
Sun 03:57:11 PM 37.4633 -118.7928 245° Southwest 426 490 36,000  Level Oakland Center
Sun 03:58:13 PM 37.4142 -118.9217 244° Southwest 420 483 36,000 -195 Level Oakland Center
Sun 03:59:14 PM 37.3669 -119.0583 247° West 425 489 35,600 -829 Descending Oakland Center
Sun 04:00:16 PM 37.3414 -119.2122 258° West 455 524 34,300 -871 Descending Oakland Center
Sun 04:01:18 PM 37.3083 -119.3544 254° West 431 496 33,800 -976 Descending Oakland Center
Sun 04:02:19 PM 37.2772 -119.5000 255° West 432 497 32,300 -1,463 Descending Oakland Center
Sun 04:03:21 PM 37.2328 -119.6375 248° West 432 497 30,800 -1,415 Descending Oakland Center
Sun 04:04:22 PM 37.1739 -119.7686 241° Southwest 432 497 29,400 -1,463 Descending Oakland Center
Sun 04:05:24 PM 37.1106 -119.9067 240° Southwest 444 511 27,800 -1,610 Descending Oakland Center
Sun 04:06:25 PM 37.0439 -120.0578 241° Southwest 427 491 26,100 -1,623 Descending Oakland Center
Sun 04:07:26 PM 36.9833 -120.1858 239° Southwest 413 475 24,500 -1,512 Descending Oakland Center
Sun 04:08:28 PM 36.9294 -120.3078 241° Southwest 403 464 23,000 -1,463 Descending Oakland Center
Sun 04:09:29 PM 36.8728 -120.4300 240° Southwest 407 468 21,500 -1,512 Descending Oakland Center
Sun 04:10:31 PM 36.8169 -120.5533 241° Southwest 392 451 19,900 -1,463 Descending Oakland Center
Sun 04:11:32 PM 36.7706 -120.6569 241° Southwest 382 440 18,500 -1,512 Descending Oakland Center
Sun 04:12:34 PM 36.7108 -120.7950 242° Southwest 388 447 16,800 -1,512 Descending Oakland Center
Sun 04:13:35 PM 36.6744 -120.9092 248° West 358 412 15,400 -1,180 Descending Oakland Center
Sun 04:14:36 PM 36.6361 -121.0281 248° West 367 422 14,400 -1,024 Descending Oakland Center
Sun 04:15:38 PM 36.5986 -121.1433 248° West 364 419 13,300 -1,463 Descending Oakland Center
Sun 04:16:39 PM 36.5817 -121.2497 259° West 330 380 11,400 -2,146 Descending Oakland Center
Sun 04:17:41 PM 36.5664 -121.3461 259° West 299 344 8,900 -2,439 Descending Oakland Center
Sun 04:18:42 PM 36.5497 -121.4419 258° West 290 334 6,400 -1,951 Descending Oakland Center
Sun 04:19:44 PM 36.5344 -121.5300 258° West 275 316 4,900 -1,024 Descending Oakland Center
Sun 04:20:45 PM 36.5231 -121.6094 260° West 232 267 4,300 -369 Descending Oakland Center
Sun 04:21:54 PM 36.5333 -121.6667 283° West 159 183 4,100 -369 Descending Northern Cal TRACON
Sun 04:22:55 PM 36.5500 -121.7167 293° West 145 167 3,500 -590 Descending Northern Cal TRACON

Login

Don't have an account? Register now (free) for customized features, flight alerts, and more!